createdAt,value
2022-09-06T00:00:24.354Z,2.30
2022-09-06T00:02:51.480Z,2.67
2022-09-06T00:05:19.126Z,1.70
2022-09-06T00:07:46.052Z,2.33
2022-09-06T00:10:13.791Z,2.67
2022-09-06T00:12:41.213Z,2.07
2022-09-06T00:15:08.875Z,2.20
2022-09-06T00:17:36.414Z,2.50
2022-09-06T00:20:05.430Z,2.83
2022-09-06T00:22:32.301Z,3.00
2022-09-06T00:24:59.206Z,2.73
2022-09-06T00:27:26.261Z,2.10
2022-09-06T00:29:53.236Z,2.90
2022-09-06T00:32:20.090Z,2.70
2022-09-06T00:34:47.151Z,2.47
2022-09-06T00:37:14.151Z,2.80
2022-09-06T00:39:41.304Z,2.10
2022-09-06T00:42:13.144Z,2.20
2022-09-06T00:44:40.591Z,2.03
2022-09-06T00:47:08.748Z,2.30
2022-09-06T00:49:44.207Z,2.50
2022-09-06T00:52:15.561Z,2.40
2022-09-06T00:54:43.929Z,2.53
2022-09-06T00:57:11.581Z,2.30
2022-09-06T00:59:41.218Z,2.40
2022-09-06T01:02:09.580Z,2.30
2022-09-06T01:04:39.383Z,2.90
2022-09-06T01:07:54.874Z,2.50
2022-09-06T01:10:42.489Z,3.40
2022-09-06T01:13:52.496Z,2.50
2022-09-06T01:16:43.544Z,2.20
2022-09-06T01:19:57.947Z,3.43
2022-09-06T01:22:47.632Z,2.47
2022-09-06T01:25:44.631Z,2.37
2022-09-06T01:28:41.473Z,2.70
2022-09-06T01:31:38.874Z,2.80
2022-09-06T01:34:05.798Z,3.03
2022-09-06T01:37:08.338Z,2.80
2022-09-06T01:39:36.311Z,3.43
2022-09-06T01:42:13.290Z,3.37
2022-09-06T01:44:49.680Z,3.40
2022-09-06T01:47:38.632Z,3.73
2022-09-06T01:50:34.355Z,2.73
2022-09-06T01:53:36.095Z,3.70
2022-09-06T01:56:30.383Z,3.33
2022-09-06T01:59:37.141Z,3.67
2022-09-06T02:02:10.962Z,3.30
2022-09-06T02:05:02.436Z,3.73
2022-09-06T02:07:34.090Z,3.77
2022-09-06T02:10:40.565Z,3.40
2022-09-06T02:13:10.846Z,3.13
2022-09-06T02:15:45.563Z,3.13
2022-09-06T02:18:22.393Z,3.20
2022-09-06T02:20:54.587Z,3.43
2022-09-06T02:23:28.665Z,3.73
2022-09-06T02:26:18.953Z,2.83
2022-09-06T02:28:46.325Z,4.07
2022-09-06T02:31:42.120Z,2.40
2022-09-06T02:34:13.978Z,3.57
2022-09-06T02:36:41.137Z,3.50
2022-09-06T02:39:08.053Z,3.40
2022-09-06T02:41:36.075Z,3.63
2022-09-06T02:44:03.232Z,4.07
2022-09-06T02:46:30.723Z,4.03
2022-09-06T02:48:57.834Z,2.97
2022-09-06T02:51:24.788Z,3.33
2022-09-06T02:53:52.168Z,4.10
2022-09-06T02:56:19.099Z,3.20
2022-09-06T02:58:46.062Z,3.30
2022-09-06T03:01:13.039Z,3.60
2022-09-06T03:03:42.303Z,3.40
2022-09-06T03:06:09.223Z,2.90
2022-09-06T03:08:36.484Z,3.50
2022-09-06T03:11:03.803Z,4.27
2022-09-06T03:13:30.951Z,3.73
2022-09-06T03:16:00.298Z,3.53
2022-09-06T03:18:31.292Z,3.17
2022-09-06T03:20:59.364Z,3.30
2022-09-06T03:23:28.910Z,3.33
2022-09-06T03:25:56.350Z,3.47
2022-09-06T03:28:23.719Z,3.20
2022-09-06T03:30:52.378Z,2.87
2022-09-06T03:33:20.723Z,3.17
2022-09-06T03:35:58.325Z,2.80
2022-09-06T03:38:27.438Z,3.33
2022-09-06T03:40:55.194Z,2.47
2022-09-06T03:43:24.800Z,2.73
2022-09-06T03:45:55.147Z,3.00
2022-09-06T03:48:24.885Z,2.87
2022-09-06T03:50:55.405Z,3.03
2022-09-06T03:53:24.894Z,3.20
2022-09-06T03:55:55.045Z,2.67
2022-09-06T03:58:24.861Z,2.70
2022-09-06T04:01:08.581Z,2.43
2022-09-06T04:03:37.011Z,2.20
2022-09-06T04:06:05.646Z,2.10
2022-09-06T04:08:33.662Z,2.23
2022-09-06T04:11:00.930Z,2.10
2022-09-06T04:13:29.130Z,2.40
2022-09-06T04:15:56.062Z,3.77
2022-09-06T04:18:23.912Z,2.47
2022-09-06T04:20:58.744Z,2.57
2022-09-06T04:23:28.927Z,2.67
2022-09-06T04:25:58.379Z,2.30
2022-09-06T04:28:26.827Z,2.80
2022-09-06T04:31:00.803Z,2.87
2022-09-06T04:33:33.097Z,2.50
2022-09-06T04:36:02.249Z,2.53
2022-09-06T04:38:34.775Z,2.20
2022-09-06T04:41:01.770Z,1.80
2022-09-06T04:43:28.662Z,2.63
2022-09-06T04:45:55.783Z,3.00
2022-09-06T04:48:22.787Z,2.73
2022-09-06T04:50:49.699Z,3.00
2022-09-06T04:53:16.589Z,2.47
2022-09-06T04:55:43.710Z,2.30
2022-09-06T04:58:10.538Z,2.53
2022-09-06T05:00:38.882Z,3.57
2022-09-06T05:03:05.910Z,4.40
2022-09-06T05:05:32.834Z,4.00
2022-09-06T05:07:59.817Z,3.60
2022-09-06T05:10:27.256Z,3.33
2022-09-06T05:12:54.903Z,3.30
2022-09-06T05:15:23.722Z,3.27
2022-09-06T05:17:50.591Z,3.00
2022-09-06T05:20:18.105Z,2.93
2022-09-06T05:22:54.268Z,2.67
2022-09-06T05:25:21.981Z,3.20
2022-09-06T05:27:49.060Z,4.03
2022-09-06T05:30:18.051Z,3.23
2022-09-06T05:32:45.244Z,4.17
2022-09-06T05:35:12.177Z,3.43
2022-09-06T05:37:40.301Z,3.30
2022-09-06T05:40:08.184Z,4.13
2022-09-06T05:42:35.252Z,3.93
2022-09-06T05:45:02.324Z,3.47
2022-09-06T05:47:31.151Z,6.00
2022-09-06T05:49:58.053Z,3.87
2022-09-06T05:52:25.042Z,4.20
2022-09-06T05:54:55.760Z,3.97
2022-09-06T05:57:22.756Z,3.70
2022-09-06T05:59:49.607Z,4.40
2022-09-06T06:02:16.587Z,4.00
2022-09-06T06:04:43.796Z,4.80
2022-09-06T06:07:10.752Z,3.70
2022-09-06T06:09:37.566Z,3.63
2022-09-06T06:12:05.113Z,3.63
2022-09-06T06:14:31.948Z,2.83
2022-09-06T06:16:59.086Z,3.80
2022-09-06T06:19:26.690Z,3.37
2022-09-06T06:21:53.778Z,4.10
2022-09-06T06:24:20.597Z,4.33
2022-09-06T06:26:47.842Z,3.77
2022-09-06T06:29:15.953Z,4.17
2022-09-06T06:31:42.933Z,4.00
2022-09-06T06:34:09.840Z,4.03
2022-09-06T06:36:37.486Z,3.57
2022-09-06T06:39:08.400Z,4.73
2022-09-06T06:41:35.905Z,4.13
2022-09-06T06:44:05.433Z,3.80
2022-09-06T06:46:37.466Z,3.87
2022-09-06T06:49:05.310Z,4.50
2022-09-06T06:51:37.072Z,4.47
2022-09-06T06:54:05.145Z,3.83
2022-09-06T06:56:40.726Z,4.00
2022-09-06T06:59:08.088Z,4.13
2022-09-06T07:01:36.898Z,4.40
2022-09-06T07:04:05.308Z,3.33
2022-09-06T07:12:24.493Z,4.23
2022-09-06T07:14:51.450Z,4.30
2022-09-06T07:17:18.409Z,4.10
2022-09-06T07:22:32.159Z,4.23
2022-09-06T07:24:59.014Z,3.80
2022-09-06T07:30:14.113Z,3.57
2022-09-06T07:32:41.049Z,3.50
2022-09-06T07:35:09.186Z,3.90
2022-09-06T07:37:36.027Z,3.73
2022-09-06T07:40:04.164Z,3.47
2022-09-06T07:42:36.162Z,3.20
2022-09-06T07:45:05.068Z,2.83
2022-09-06T07:53:13.979Z,2.33
2022-09-06T07:55:42.846Z,1.90
2022-09-06T07:58:09.700Z,2.00
2022-09-06T08:00:38.259Z,2.00
2022-09-06T08:03:05.291Z,1.50
2022-09-06T08:11:07.633Z,1.08
2022-09-06T08:13:36.995Z,1.13
2022-09-06T08:16:10.805Z,0.80
2022-09-06T08:18:38.304Z,0.70
2022-09-06T08:21:12.817Z,0.85
2022-09-06T08:23:44.988Z,0.82
2022-09-06T08:26:12.799Z,0.70
2022-09-06T08:28:39.768Z,1.08
2022-09-06T08:31:17.923Z,0.60
2022-09-06T08:33:47.530Z,0.95
2022-09-06T08:36:14.897Z,0.88
2022-09-06T08:38:42.327Z,1.40
2022-09-06T08:41:24.328Z,0.70
2022-09-06T08:47:13.788Z,0.98
2022-09-06T08:49:52.766Z,0.70
2022-09-06T08:52:45.332Z,1.00
2022-09-06T08:55:49.468Z,0.90
2022-09-06T08:58:39.835Z,1.08
2022-09-06T09:01:32.757Z,1.15
2022-09-06T09:04:05.211Z,2.05
2022-09-06T09:06:33.304Z,0.80
2022-09-06T09:09:07.637Z,0.80
2022-09-06T09:11:36.544Z,0.70
2022-09-06T09:14:21.145Z,0.55
2022-09-06T09:17:06.979Z,0.77
2022-09-06T09:19:37.339Z,0.80
2022-09-06T09:22:04.320Z,0.70
2022-09-06T09:24:32.351Z,0.95
2022-09-06T09:27:16.167Z,0.80
2022-09-06T09:32:46.418Z,0.68
2022-09-06T09:35:29.717Z,0.80
2022-09-06T09:38:53.061Z,0.60
2022-09-06T09:41:42.948Z,0.70
2022-09-06T09:44:17.531Z,0.77
2022-09-06T09:46:45.133Z,0.57
2022-09-06T09:49:29.616Z,1.45
2022-09-06T09:52:14.639Z,0.75
2022-09-06T09:54:46.198Z,0.60
2022-09-06T09:57:20.054Z,1.02
2022-09-06T09:59:58.212Z,0.80
2022-09-06T10:02:35.842Z,0.75
2022-09-06T10:05:12.297Z,0.80
2022-09-06T10:07:52.687Z,0.60
2022-09-06T10:10:30.117Z,0.70
2022-09-06T10:13:31.527Z,0.80
2022-09-06T10:16:03.392Z,0.73
2022-09-06T10:18:41.977Z,0.70
2022-09-06T10:21:23.919Z,2.08
2022-09-06T10:24:28.005Z,0.77
2022-09-06T10:27:03.440Z,0.68
2022-09-06T10:29:50.298Z,0.60
2022-09-06T10:32:36.055Z,0.90
2022-09-06T10:35:14.897Z,0.80
2022-09-06T10:38:08.591Z,0.80
2022-09-06T10:40:47.156Z,0.90
2022-09-06T10:43:20.387Z,0.70
2022-09-06T10:46:14.657Z,0.80
2022-09-06T10:48:46.011Z,0.60
2022-09-06T10:51:38.379Z,0.80
2022-09-06T10:54:14.810Z,0.63
2022-09-06T10:57:02.256Z,1.10
2022-09-06T10:59:39.697Z,0.60
2022-09-06T11:02:40.539Z,0.70
2022-09-06T11:09:01.686Z,0.90
2022-09-06T11:12:19.540Z,0.80
2022-09-06T11:14:48.306Z,0.60
2022-09-06T11:18:09.619Z,0.60
2022-09-06T11:20:47.504Z,0.90
2022-09-06T11:23:52.725Z,0.70
2022-09-06T11:26:37.203Z,0.70
2022-09-06T11:29:22.212Z,0.90
2022-09-06T11:32:16.725Z,0.80
2022-09-06T11:34:58.629Z,0.93
2022-09-06T11:37:32.742Z,0.82
2022-09-06T11:42:55.641Z,0.85
2022-09-06T11:45:51.724Z,0.70
2022-09-06T11:48:26.274Z,0.90
2022-09-06T11:51:03.715Z,1.02
2022-09-06T11:53:35.954Z,0.73
2022-09-06T11:56:03.135Z,0.80
2022-09-06T11:58:42.170Z,0.73
2022-09-06T12:01:16.641Z,0.77
2022-09-06T12:07:12.121Z,1.20
2022-09-06T12:09:43.953Z,1.05
2022-09-06T12:12:16.805Z,0.90
2022-09-06T12:14:48.152Z,0.85
2022-09-06T12:17:15.106Z,0.98
2022-09-06T12:20:06.667Z,0.90
2022-09-06T12:22:33.801Z,1.40
2022-09-06T12:25:20.882Z,0.90
2022-09-06T12:27:58.740Z,0.93
2022-09-06T12:30:44.975Z,1.00
2022-09-06T12:33:27.115Z,1.00
2022-09-06T12:36:19.399Z,1.00
2022-09-06T12:39:08.509Z,1.00
2022-09-06T12:41:44.512Z,0.73
2022-09-06T12:44:15.696Z,1.20
2022-09-06T12:46:51.534Z,0.95
2022-09-06T12:49:23.389Z,0.90
2022-09-06T12:51:50.494Z,1.08
2022-09-06T12:54:26.731Z,1.27
2022-09-06T12:57:10.944Z,1.00
2022-09-06T12:59:38.051Z,2.78
2022-09-06T13:02:18.611Z,1.33
2022-09-06T13:04:56.124Z,1.00
2022-09-06T13:07:24.532Z,0.90
2022-09-06T13:09:56.030Z,0.80
2022-09-06T13:12:40.439Z,1.00
2022-09-06T13:15:33.613Z,1.20
2022-09-06T13:18:31.483Z,0.80
2022-09-06T13:21:08.456Z,1.00
2022-09-06T13:23:45.667Z,0.73
2022-09-06T13:26:12.631Z,0.90
2022-09-06T13:28:40.232Z,1.00
2022-09-06T13:31:20.824Z,0.80
2022-09-06T13:33:59.645Z,0.90
2022-09-06T13:36:31.726Z,0.80
2022-09-06T13:39:00.474Z,0.88
2022-09-06T13:41:29.789Z,0.80
2022-09-06T13:44:07.836Z,1.10
2022-09-06T13:46:38.381Z,0.82
2022-09-06T13:49:06.089Z,0.93
2022-09-06T13:51:34.341Z,0.90
2022-09-06T13:54:14.206Z,0.82
2022-09-06T13:56:44.646Z,1.10
2022-09-06T13:59:12.766Z,0.90
2022-09-06T14:01:42.957Z,1.00
2022-09-06T14:04:15.211Z,0.65
2022-09-06T14:06:42.323Z,1.13
2022-09-06T14:09:09.685Z,1.10
2022-09-06T14:11:37.778Z,1.20
2022-09-06T14:14:05.719Z,0.95
2022-09-06T14:16:34.381Z,1.10
2022-09-06T14:19:01.994Z,1.20
2022-09-06T14:21:29.126Z,0.93
2022-09-06T14:23:58.852Z,0.88
2022-09-06T14:26:29.430Z,0.80
2022-09-06T14:28:56.354Z,1.17
2022-09-06T14:31:26.109Z,1.27
2022-09-06T14:33:57.659Z,0.80
2022-09-06T14:36:29.601Z,1.00
2022-09-06T14:38:59.209Z,0.90
2022-09-06T14:41:26.859Z,0.80
2022-09-06T14:43:57.257Z,0.77
2022-09-06T14:46:27.649Z,0.60
2022-09-06T14:49:13.326Z,0.70
2022-09-06T14:51:40.907Z,0.98
2022-09-06T14:54:11.920Z,0.80
2022-09-06T14:56:41.825Z,1.27
2022-09-06T14:59:09.490Z,1.50
2022-09-06T15:01:39.040Z,0.77
2022-09-06T15:04:09.655Z,0.90
2022-09-06T15:06:40.209Z,2.08
2022-09-06T15:09:08.037Z,2.10
2022-09-06T15:11:41.965Z,1.50
2022-09-06T15:14:18.571Z,1.30
2022-09-06T15:16:49.900Z,1.30
2022-09-06T15:19:20.400Z,4.32
2022-09-06T15:21:47.481Z,2.17
2022-09-06T15:24:15.746Z,1.30
2022-09-06T15:26:43.399Z,1.15
2022-09-06T15:29:12.117Z,1.00
2022-09-06T15:31:40.439Z,0.80
2022-09-06T15:34:08.986Z,1.02
2022-09-06T15:36:37.532Z,1.00
2022-09-06T15:39:05.966Z,0.70
2022-09-06T15:41:36.544Z,0.90
2022-09-06T15:44:16.874Z,0.90
2022-09-06T15:46:57.576Z,0.90
2022-09-06T15:49:31.810Z,1.00
2022-09-06T15:52:02.492Z,0.73
2022-09-06T15:54:48.946Z,0.93
2022-09-06T15:57:17.156Z,0.88
2022-09-06T15:59:44.908Z,0.95
2022-09-06T16:02:12.620Z,0.73
2022-09-06T16:04:40.275Z,0.90
2022-09-06T16:07:07.238Z,1.00
2022-09-06T16:09:34.318Z,0.98
2022-09-06T16:12:01.351Z,1.00
2022-09-06T16:14:28.831Z,1.00
2022-09-06T16:16:57.191Z,1.08
2022-09-06T16:19:25.956Z,1.10
2022-09-06T16:21:53.031Z,0.80
2022-09-06T16:24:20.667Z,0.90
2022-09-06T16:26:47.645Z,0.80
2022-09-06T16:29:17.990Z,0.80
2022-09-06T16:31:47.194Z,0.70
2022-09-06T16:34:16.614Z,0.70
2022-09-06T16:36:44.770Z,0.82
2022-09-06T16:39:11.714Z,0.80
2022-09-06T16:41:42.825Z,0.90
2022-09-06T16:44:16.305Z,1.00
2022-09-06T16:46:49.717Z,0.80
2022-09-06T16:49:19.010Z,0.60
2022-09-06T16:51:47.745Z,1.25
2022-09-06T16:54:15.573Z,0.95
2022-09-06T16:56:43.838Z,1.25
2022-09-06T16:59:12.407Z,0.90
2022-09-06T17:01:43.453Z,0.90
2022-09-06T17:04:12.639Z,0.80
2022-09-06T17:06:44.708Z,1.02
2022-09-06T17:09:19.326Z,1.10
2022-09-06T17:11:49.823Z,0.93
2022-09-06T17:14:19.163Z,1.05
2022-09-06T17:17:04.544Z,1.35
2022-09-06T17:19:41.387Z,1.02
2022-09-06T17:22:10.894Z,1.60
2022-09-06T17:24:39.425Z,1.08
2022-09-06T17:27:07.752Z,1.27
2022-09-06T17:29:34.895Z,1.25
2022-09-06T17:32:03.924Z,0.98
2022-09-06T17:34:30.826Z,1.25
2022-09-06T17:36:57.782Z,0.90
2022-09-06T17:39:24.706Z,0.90
2022-09-06T17:41:54.380Z,1.10
2022-09-06T17:44:25.544Z,0.93
2022-09-06T17:47:12.103Z,1.10
2022-09-06T17:49:40.390Z,1.10
2022-09-06T17:52:07.344Z,1.10
2022-09-06T17:54:34.394Z,1.42
2022-09-06T17:57:01.292Z,1.40
2022-09-06T17:59:32.832Z,1.33
2022-09-06T18:02:02.006Z,1.45
2022-09-06T18:04:28.962Z,1.45
2022-09-06T18:06:55.874Z,2.35
2022-09-06T18:09:22.761Z,2.25
2022-09-06T18:11:49.754Z,1.70
2022-09-06T18:14:20.701Z,1.95
2022-09-06T18:16:51.121Z,2.40
2022-09-06T18:19:18.940Z,1.77
2022-09-06T18:21:47.778Z,1.60
2022-09-06T18:24:15.545Z,1.67
2022-09-06T18:26:43.642Z,1.80
2022-09-06T18:29:14.503Z,1.20
2022-09-06T18:31:42.752Z,1.40
2022-09-06T18:34:10.052Z,1.20
2022-09-06T18:36:39.076Z,1.50
2022-09-06T18:39:06.400Z,1.98
2022-09-06T18:41:52.960Z,1.50
2022-09-06T18:44:20.153Z,3.25
2022-09-06T18:46:47.456Z,2.42
2022-09-06T18:49:15.725Z,1.50
2022-09-06T18:51:43.268Z,1.42
2022-09-06T18:54:11.120Z,1.30
2022-09-06T18:56:38.680Z,1.10
2022-09-06T18:59:07.076Z,1.60
2022-09-06T19:01:34.845Z,1.35
2022-09-06T19:04:03.320Z,1.20
2022-09-06T19:06:32.585Z,1.40
2022-09-06T19:09:03.378Z,1.20
2022-09-06T19:11:30.639Z,1.30
2022-09-06T19:13:58.690Z,1.30
2022-09-06T19:16:28.107Z,1.70
2022-09-06T19:18:56.730Z,1.70
2022-09-06T19:21:25.466Z,1.20
2022-09-06T19:24:07.906Z,1.67
2022-09-06T19:26:38.645Z,1.33
2022-09-06T19:29:13.741Z,1.20
2022-09-06T19:31:41.431Z,1.97
2022-09-06T19:34:08.485Z,1.60
2022-09-06T19:36:36.169Z,1.50
2022-09-06T19:39:07.697Z,1.50
2022-09-06T19:41:38.921Z,1.53
2022-09-06T19:44:08.458Z,0.97
2022-09-06T19:46:37.248Z,1.57
2022-09-06T19:49:08.016Z,1.30
2022-09-06T19:51:36.809Z,1.80
2022-09-06T19:54:04.688Z,1.50
2022-09-06T19:56:34.227Z,1.07
2022-09-06T19:59:05.195Z,1.00
2022-09-06T20:01:34.886Z,1.30
2022-09-06T20:04:06.895Z,1.23
2022-09-06T20:06:34.983Z,1.03
2022-09-06T20:09:04.926Z,1.33
2022-09-06T20:11:34.989Z,1.60
2022-09-06T20:14:02.369Z,1.40
2022-09-06T20:16:30.496Z,1.47
2022-09-06T20:18:59.503Z,1.60
2022-09-06T20:21:28.393Z,1.50
2022-09-06T20:23:57.991Z,1.60
2022-09-06T20:26:28.408Z,1.10
2022-09-06T20:28:57.282Z,1.10
2022-09-06T20:31:25.761Z,2.27
2022-09-06T20:33:52.703Z,2.10
2022-09-06T20:36:20.577Z,2.57
2022-09-06T20:38:48.874Z,2.40
2022-09-06T20:41:22.756Z,1.80
2022-09-06T20:43:58.951Z,1.67
2022-09-06T20:46:30.550Z,1.30
2022-09-06T20:49:01.811Z,1.70
2022-09-06T20:51:28.700Z,1.60
2022-09-06T20:54:01.151Z,1.77
2022-09-06T20:56:40.479Z,1.40
2022-09-06T20:59:11.068Z,1.20
2022-09-06T21:01:43.040Z,0.97
2022-09-06T21:04:12.499Z,1.10
2022-09-06T21:06:40.410Z,1.93
2022-09-06T21:09:11.933Z,1.60
2022-09-06T21:11:40.251Z,2.60
2022-09-06T21:14:08.053Z,2.33
2022-09-06T21:16:35.337Z,1.97
2022-09-06T21:19:07.031Z,1.73
2022-09-06T21:21:34.792Z,1.67
2022-09-06T21:24:05.062Z,1.97
2022-09-06T21:26:32.990Z,2.00
2022-09-06T21:29:00.216Z,1.70
2022-09-06T21:31:31.434Z,1.70
2022-09-06T21:34:03.244Z,1.40
2022-09-06T21:36:36.994Z,2.23
2022-09-06T21:39:09.457Z,2.73
2022-09-06T21:41:39.257Z,2.33
2022-09-06T21:44:08.073Z,2.10
2022-09-06T21:46:37.936Z,1.70
2022-09-06T21:49:09.119Z,1.50
2022-09-06T21:51:36.759Z,1.57
2022-09-06T21:54:05.692Z,1.10
2022-09-06T21:56:34.684Z,1.20
2022-09-06T21:59:02.157Z,1.63
2022-09-06T22:01:32.864Z,1.37
2022-09-06T22:04:00.761Z,1.10
2022-09-06T22:06:29.907Z,1.23
2022-09-06T22:09:00.643Z,1.20
2022-09-06T22:11:34.125Z,1.23
2022-09-06T22:14:04.845Z,1.00
2022-09-06T22:16:35.254Z,1.97
2022-09-06T22:19:04.822Z,1.93
2022-09-06T22:21:33.481Z,1.20
2022-09-06T22:24:04.784Z,1.13
2022-09-06T22:26:35.048Z,1.60
2022-09-06T22:29:06.319Z,1.17
2022-09-06T22:31:34.924Z,1.97
2022-09-06T22:34:02.650Z,1.80
2022-09-06T22:36:29.801Z,2.07
2022-09-06T22:38:57.560Z,1.97
2022-09-06T22:41:27.490Z,1.90
2022-09-06T22:43:54.748Z,1.40
2022-09-06T22:46:22.162Z,1.70
2022-09-06T22:48:49.277Z,1.43
2022-09-06T22:51:16.286Z,1.53
2022-09-06T22:53:43.509Z,1.50
2022-09-06T22:56:10.456Z,1.80
2022-09-06T22:58:37.445Z,1.63
2022-09-06T23:01:12.504Z,1.73
2022-09-06T23:03:40.966Z,2.03
2022-09-06T23:06:08.713Z,1.57
2022-09-06T23:08:38.317Z,1.10
2022-09-06T23:11:15.837Z,1.63
2022-09-06T23:13:43.954Z,1.50
2022-09-06T23:16:15.249Z,1.17
2022-09-06T23:18:42.321Z,0.93
2022-09-06T23:21:15.575Z,2.30
2022-09-06T23:23:43.323Z,1.43
2022-09-06T23:26:17.841Z,1.47
2022-09-06T23:28:45.898Z,1.30
2022-09-06T23:31:15.443Z,1.50
2022-09-06T23:33:42.927Z,1.10
2022-09-06T23:36:13.562Z,1.30
2022-09-06T23:38:42.690Z,1.13
2022-09-06T23:41:10.365Z,1.30
2022-09-06T23:43:38.775Z,1.70
2022-09-06T23:46:06.493Z,1.77
2022-09-06T23:48:33.843Z,1.80
2022-09-06T23:51:00.911Z,2.53
2022-09-06T23:53:28.220Z,2.40
2022-09-06T23:55:55.302Z,2.13
2022-09-06T23:58:22.482Z,2.43
